Nearby METAR Reports - 80 Mile Radius
Meteorological Terminal Air Report (METAR)


KBWI - Balto/Wash Intl Airport, Maryland
Distance from station: S 5mi, 8km
Updated: Sun, 19-Jan-2020 12:54am EST
Overcast
Overcast
 Wind from SW
Wind: SW 14 mph , 22 km/h, Gust: 23 mph , 37 km/h
Temperature: 43°F , 6°C
Wind Chill: 36°F , 2°C
Dew Point: 37°F , 3°C
Humidity: 81%
Barometer: 29.73 inHg , 1006.8 hPa
Clouds: Overcast
Visibility: 10 miles , 16 km
Cloud details: Overcast 800 ft
2020/01/19 05:54 KBWI 190554Z 23012G20KT 10SM OVC008 06/03 A2973 RMK AO2 SLP070 T00560033 10056 20011 56037
KDMH - Baltimore/Dwntwn, Maryland
Distance from station: NE 5mi, 9km
Updated: Sun, 19-Jan-2020 12:54am EST

 
Temperature: 41°F , 5°C
Dew Point: 37°F , 3°C
Humidity: 87%
Barometer: 29.76 inHg , 1007.8 hPa
2020/01/19 05:54 KDMH 190554Z AUTO 05/03 A2976 RMK AO1 SLP076 T00500033 10050 20011 56037 $
KFME - Fort Meade/Tipton AAF, Maryland
Distance from station: SSW 11mi, 18km
Updated: Sun, 19-Jan-2020 1:27am EST
Overcast
Overcast
 Wind from SW
Wind: SW 9 mph , 15 km/h, Gust: 17 mph , 28 km/h
Temperature: 41°F , 5°C
Wind Chill: 35°F , 2°C
Dew Point: 37°F , 3°C
Humidity: 87%
Barometer: 29.75 inHg , 1007.5 hPa
Clouds: Overcast
Visibility: 10 miles , 16 km
Cloud details: Overcast 900 ft
2020/01/19 06:27 KFME 190627Z AUTO 22008G15KT 10SM OVC009 05/03 A2975 RMK AO1
 
KMTN - Balto/Martin State Airport, Maryland
Distance from station: ENE 16mi, 26km
Updated: Sun, 19-Jan-2020 1:27am EST
Overcast
Overcast
 Wind from S
Wind: S 7 mph , 11 km/h
Temperature: 41°F , 5°C
Wind Chill: 36°F , 2°C
Dew Point: 41°F , 5°C
Humidity: 100%
Barometer: 29.74 inHg , 1007.1 hPa
Clouds: Overcast
Visibility: 10 miles , 16 km
Cloud details: Overcast 1100 ft
2020/01/19 06:27 KMTN 190627Z AUTO 18006KT 10SM OVC011 05/05 A2974 RMK AO2
KCGS - College Park Airport, Maryland
Distance from station: SSW 21mi, 34km
Updated: Sun, 19-Jan-2020 1:28am EST
Overcast
Overcast
 Wind from SSW
Wind: SSW 7 mph , 11 km/h
Temperature: 41°F , 5°C
Wind Chill: 36°F , 2°C
Dew Point: 36°F , 2°C
Humidity: 81%
Barometer: 29.74 inHg , 1007.1 hPa
Clouds: Overcast
Visibility: 10 miles , 16 km
Cloud details: Overcast 1000 ft
2020/01/19 06:28 KCGS 190628Z AUTO 20006KT 10SM OVC010 05/02 A2974 RMK AO1 T00510020
KNAK - Annapolis/Naval Academy, Maryland
Distance from station: SE 21mi, 34km
Updated: Sun, 19-Jan-2020 12:54am EST
Overcast
Overcast
 Wind from varies
Wind: varies 7 mph , 11 km/h
Temperature: 43°F , 6°C
Wind Chill: 39°F , 4°C
Dew Point: 37°F , 3°C
Humidity: 81%
Barometer: 29.75 inHg , 1007.5 hPa
Clouds: Overcast
Visibility: 10 miles , 16 km
Cloud details: Overcast 1500 ft
2020/01/19 05:54 KNAK 190554Z AUTO VRB06KT 10SM OVC015 06/03 A2975 RMK AO2 SLP077 T00560033 10056 20011 56043
 
KGAI - Gaithersburg/Montgomery Co Airpark, Maryland
Distance from station: W 26mi, 41km
Updated: Sun, 19-Jan-2020 1:14am EST
Overcast
Overcast
 Wind from SSW
Wind: SSW 9 mph , 15 km/h
Temperature: 39°F , 4°C
Wind Chill: 33°F , 1°C
Dew Point: 37°F , 3°C
Humidity: 93%
Barometer: 29.72 inHg , 1006.4 hPa
Clouds: Overcast
Visibility: 10 miles , 16 km
Cloud details: Overcast 600 ft
2020/01/19 06:14 KGAI 190614Z AUTO 20008KT 10SM OVC006 04/03 A2972 RMK AO2
KW29 - Stevensville/Bay Bridge Airport, Maryland
Distance from station: SE 26mi, 42km
Updated: Sun, 19-Jan-2020 1:25am EST
Mostly Cloudy
Mostly Cloudy
 Wind from SW
Wind: SW 13 mph , 20 km/h, Gust: 24 mph , 39 km/h
Temperature: 41°F , 5°C
Wind Chill: 34°F , 1°C
Dew Point: 41°F , 5°C
Humidity: 100%
Barometer: 29.75 inHg , 1007.5 hPa
Clouds: Mostly Cloudy
Visibility: 10 miles , 16 km
Cloud details: Partly Cloudy 1300 ft
Mostly Cloudy 7000 ft
2020/01/19 06:25 KW29 190625Z AUTO 22011G21KT 10SM SCT013 BKN070 05/05 A2975 RMK AO2 P0010
KDMW - Carroll Co Regional Airport, Maryland
Distance from station: NNW 30mi, 48km
Updated: Sun, 19-Jan-2020 1:25am EST
Light rain, Overcast
Light rain, Overcast
 Wind from WNW
Wind: WNW 5 mph , 7 km/h
Temperature: 36°F , 2°C
Wind Chill: 32°F , 0°C
Dew Point: 36°F , 2°C
Humidity: 100%
Barometer: 29.72 inHg , 1006.4 hPa
Summary: Light Rain
Clouds: Overcast
Visibility: 1/2 mile , 0.8 km
Cloud details: Overcast 100 ft
2020/01/19 06:25 KDMW 190625Z AUTO 30004KT 1/2SM -RA OVC001 02/02 A2972 RMK AO2 P0006
 
KADW - Andrews AFB, Maryland
Distance from station: SSW 30mi, 49km
Updated: Sun, 19-Jan-2020 12:56am EST
Overcast
Overcast
 Wind from SSW
Wind: SSW 15 mph , 24 km/h
Temperature: 41°F , 5°C
Wind Chill: 33°F , 1°C
Dew Point: 39°F , 4°C
Humidity: 93%
Barometer: 29.75 inHg , 1007.5 hPa
Clouds: Overcast
Visibility: 10 miles , 16 km
Cloud details: Overcast 900 ft
2020/01/19 05:56 KADW 190556Z AUTO 21013KT 10SM OVC009 05/04 A2975 RMK AO2 PK WND 21027/04 SLP083 T00470035 10047 20006 57038 $
KAPG - Aberdeen/Phillip AAF, Maryland
Distance from station: ENE 32mi, 52km
Updated: Sun, 19-Jan-2020 1:38am EST
Overcast
Overcast
 Wind from SW
Wind: SW 10 mph , 17 km/h
Temperature: 41°F , 5°C
Wind Chill: 35°F , 2°C
Dew Point: 39°F , 4°C
Humidity: 93%
Barometer: 29.72 inHg , 1006.4 hPa
Clouds: Overcast
Visibility: 10 miles , 16 km
Cloud details: Overcast 1000 ft
2020/01/19 06:38 KAPG 190638Z AUTO 22009KT 10SM OVC010 05/04 A2972 RMK AO2 SLP068 PNO TSNO $
KDCA - Washington/Natl Airport, Washington D.C.
Distance from station: SW 32mi, 52km
Updated: Sun, 19-Jan-2020 12:52am EST
Overcast
Overcast
 Wind from SSW
Wind: SSW 16 mph , 26 km/h
Temperature: 43°F , 6°C
Wind Chill: 35°F , 2°C
Dew Point: 39°F , 4°C
Humidity: 87%
Barometer: 29.77 inHg , 1008.1 hPa
Clouds: Overcast
Visibility: 10 miles , 16 km
Cloud details: Overcast 1200 ft
2020/01/19 05:52 KDCA 190552Z 20014KT 10SM OVC012 06/04 A2977 RMK AO2 SLP080 T00560039 10056 20017 56039
 
KFDK - Frederick Municipal Airport, Maryland
Distance from station: WNW 38mi, 61km
Updated: Sun, 19-Jan-2020 1:25am EST
Light rain, Overcast
Light rain, Overcast
 Wind from calm
Wind: Calm
Temperature: 36°F , 2°C
Dew Point: 36°F , 2°C
Humidity: 100%
Barometer: 29.76 inHg , 1007.8 hPa
Summary: Light Rain
Clouds: Overcast
Visibility: 4 miles , 6 km
Cloud details: Overcast 700 ft
2020/01/19 06:25 KFDK 190625Z AUTO 00000KT 4SM -RA OVC007 02/02 A2976 RMK AO2
KDAA - Fort Belvoir/Davison AAF, Virginia
Distance from station: SW 44mi, 71km
Updated: Sun, 19-Jan-2020 12:56am EST
Overcast
Overcast
 Wind from S
Wind: S 6 mph , 9 km/h
Temperature: 43°F , 6°C
Wind Chill: 39°F , 4°C
Dew Point: 37°F , 3°C
Humidity: 81%
Barometer: 29.77 inHg , 1008.1 hPa
Clouds: Overcast
Visibility: 10 miles , 16 km
Cloud details: Overcast 1100 ft
2020/01/19 05:56 KDAA 190556Z AUTO 19005KT 10SM OVC011 06/03 A2977 RMK AO2 SLP084 T00550033 10055 20011 57041 $
KESN - Easton/Newnam Field Airport, Maryland
Distance from station: SE 45mi, 73km
Updated: Sun, 19-Jan-2020 1:44am EST
Overcast
Overcast
 Wind from SW
Wind: SW 14 mph , 22 km/h, Gust: 21 mph , 33 km/h
Temperature: 45°F , 7°C
Wind Chill: 39°F , 4°C
Dew Point: 41°F , 5°C
Humidity: 87%
Barometer: 29.80 inHg , 1009.1 hPa
Clouds: Overcast
Visibility: 10 miles , 16 km
Cloud details: Overcast 1100 ft
2020/01/19 06:44 KESN 190644Z AUTO 22012G18KT 10SM OVC011 07/05 A2980 RMK AO2 T00700054
 
KIAD - Wash DC/Dulles Intl, Virginia
Distance from station: WSW 45mi, 73km
Updated: Sun, 19-Jan-2020 12:52am EST
Overcast
Overcast
 Wind from SSW
Wind: SSW 13 mph , 20 km/h
Temperature: 41°F , 5°C
Wind Chill: 34°F , 1°C
Dew Point: 37°F , 3°C
Humidity: 87%
Barometer: 29.74 inHg , 1007.1 hPa
Clouds: Overcast
Visibility: 10 miles , 16 km
Cloud details: Overcast 900 ft
2020/01/19 05:52 KIAD 190552Z 20011KT 10SM OVC009 05/03 A2974 RMK AO2 SLP071 T00500033 10050 20006 56034
KJYO - Leesburg/Godfrey Field, Virginia
Distance from station: WSW 48mi, 77km
Updated: Sun, 19-Jan-2020 1:35am EST
Overcast
Overcast
 Wind from N
Wind: N 12 mph , 19 km/h
Temperature: 37°F , 3°C
Wind Chill: 29°F , -2°C
Dew Point: 37°F , 3°C
Humidity: 100%
Barometer: 29.76 inHg , 1007.8 hPa
Clouds: Overcast
Visibility: 10 miles , 16 km
Cloud details: Mostly Cloudy 900 ft
Overcast 6000 ft
2020/01/19 06:35 KJYO 190635Z AUTO 35010KT 10SM BKN009 OVC060 03/03 A2976 RMK AO2
KTHV - York Airport, Pennsylvania
Distance from station: NNW 48mi, 77km
Updated: Sun, 19-Jan-2020 12:53am EST
Light rain, Overcast
Light rain, Overcast
 Wind from varies
Wind: varies 6 mph , 9 km/h
Temperature: 36°F , 2°C
Wind Chill: 31°F , -1°C
Dew Point: 32°F , 0°C
Humidity: 87%
Barometer: 29.71 inHg , 1006.1 hPa
Summary: Light Rain
Clouds: Overcast
Visibility: 10 miles , 16 km
Cloud details: Partly Cloudy 700 ft
Overcast 3900 ft
2020/01/19 05:53 KTHV 190553Z AUTO VRB05KT 10SM -RA SCT007 OVC039 02/00 A2971 RMK AO2 RAB10 SLP069 P0003 60003 I6001 T00220000 10022 20000 56024
 
KRSP - Naval Support Fac Thurmont, Maryland, USA
Distance from station: NW 50mi, 81km
Updated: Sat, 18-May-2019 1:54pm EDT
NOT Current

 
2019/05/18 17:54 KRSP 181754Z AUTO VRB04KTLS21/16 A3004 RMK AO2 SLP168 T02110161 10228 20172 $
KRYT - Fountain Dale Airport, Pennsylvania
Distance from station: NW 52mi, 84km
Updated: Mon, 13-Nov-2017 7:53am EST
NOT Current
Mist, Overcast
Mist, Overcast
 Wind from calm
Wind: Calm
Temperature: 37°F , 3°C
Dew Point: 34°F , 1°C
Humidity: 87%
Barometer: 30.31 inHg , 1026.4 hPa
Summary: Mist
Clouds: Overcast
Visibility: 5 miles , 8 km
Cloud details: Overcast 700 ft
2017/11/13 12:53 KRYT 131253Z AUTO 00000KT 5SM BR OVC007 03/01 A3031 RMK AO2 SLP275 T00280011 TSNO $
KHEF - Manassas Municipal Airport, Virginia
Distance from station: SW 57mi, 91km
Updated: Sun, 19-Jan-2020 12:56am EST
Overcast
Overcast
 Wind from SSW
Wind: SSW 6 mph , 9 km/h
Temperature: 43°F , 6°C
Wind Chill: 39°F , 4°C
Dew Point: 39°F , 4°C
Humidity: 87%
Barometer: 29.76 inHg , 1007.8 hPa
Clouds: Overcast
Visibility: 10 miles , 16 km
Cloud details: Overcast 1100 ft
2020/01/19 05:56 KHEF 190556Z AUTO 20005KT 10SM OVC011 06/04 A2976 RMK AO2 SLP086 T00560039 10056 20006 56037
 
KNYG - Quantico Marine Corps Air Fac, Virginia
Distance from station: SSW 60mi, 96km
Updated: Sun, 19-Jan-2020 1:11am EST
Partly Cloudy
Partly Cloudy
 Wind from SSW
Wind: SSW 13 mph , 20 km/h, Gust: 23 mph , 37 km/h
Temperature: 43°F , 6°C
Wind Chill: 36°F , 2°C
Barometer: 29.78 inHg , 1008.5 hPa
Clouds: Partly Cloudy
Visibility: 10 miles , 16 km
Cloud details: Partly Cloudy 1400 ft
2020/01/19 06:11 KNYG 190611Z AUTO 20011G20KT 10SM SCT014 06/ A2978 RMK AO2 T0056 $
KCGE - Cambridge-Dorchester Reg Airport, Maryland
Distance from station: SE 60mi, 97km
Updated: Sun, 19-Jan-2020 1:25am EST
Overcast
Overcast
 Wind from S
Wind: S 10 mph , 17 km/h, Gust: 20 mph , 31 km/h
Temperature: 43°F , 6°C
Wind Chill: 37°F , 3°C
Dew Point: 41°F , 5°C
Humidity: 93%
Barometer: 29.78 inHg , 1008.5 hPa
Clouds: Overcast
Visibility: 10 miles , 16 km
Cloud details: Overcast 900 ft
2020/01/19 06:25 KCGE 190625Z AUTO 19009G17KT 10SM OVC009 06/05 A2978 RMK A01
K2W6 - St Marys Co Reg Airport, Maryland
Distance from station: SSE 64mi, 103km
Updated: Sun, 19-Jan-2020 1:27am EST
Mostly Cloudy
Mostly Cloudy
 Wind from SW
Wind: SW 13 mph , 20 km/h, Gust: 22 mph , 35 km/h
Temperature: 43°F , 6°C
Wind Chill: 36°F , 2°C
Dew Point: 37°F , 3°C
Humidity: 81%
Barometer: 29.80 inHg , 1009.1 hPa
Clouds: Mostly Cloudy
Cloud details: Mostly Cloudy 1000 ft
2020/01/19 06:27 K2W6 190627Z AUTO 22011G19KT BKN010 06/03 A2980 RMK AO1
 
KHGR - Hagerstown Reg Airport, Maryland
Distance from station: WNW 64mi, 103km
Updated: Sun, 19-Jan-2020 12:53am EST
Mist, Overcast
Mist, Overcast
 Wind from SE
Wind: SE 7 mph , 11 km/h
Temperature: 36°F , 2°C
Wind Chill: 30°F , -1°C
Dew Point: 32°F , 0°C
Humidity: 87%
Barometer: 29.71 inHg , 1006.1 hPa
Summary: Mist
Clouds: Overcast
Visibility: 6 miles , 10 km
Cloud details: Few Clouds 2800 ft
Mostly Cloudy 4400 ft
Overcast 5000 ft
2020/01/19 05:53 KHGR 190553Z AUTO 14006KT 6SM UP BR FEW028 BKN044 OVC050 02/00 A2971 RMK AO2 RAB01E51UPB51 SLP076 P0001 60001 I6000 T00170000 10017 20006 58009
KLNS - Lancaster Airport, Pennsylvania
Distance from station: NNE 64mi, 104km
Updated: Sun, 19-Jan-2020 1:32am EST
Light rain, Mist, Overcast
Light rain, Mist, Overcast
 Wind from calm
Wind: Calm
Temperature: 36°F , 2°C
Dew Point: 34°F , 1°C
Humidity: 93%
Barometer: 29.72 inHg , 1006.4 hPa
Summary: Light rain, Mist
Clouds: Overcast
Visibility: 3 miles , 5 km
Cloud details: Overcast 500 ft
2020/01/19 06:32 KLNS 190632Z AUTO 00000KT 3SM -RA BR OVC005 02/01 A2972 RMK AO2 P0001 T00170006
KILG - New Castle Airport, Wilmington, Delaware
Distance from station: ENE 66mi, 106km
Updated: Sun, 19-Jan-2020 12:51am EST
Overcast
Overcast
 Wind from SW
Wind: SW 12 mph , 19 km/h, Gust: 20 mph , 31 km/h
Temperature: 41°F , 5°C
Wind Chill: 34°F , 1°C
Dew Point: 37°F , 3°C
Humidity: 87%
Barometer: 29.74 inHg , 1007.1 hPa
Clouds: Overcast
Visibility: 10 miles , 16 km
Cloud details: Overcast 900 ft
2020/01/19 05:51 KILG 190551Z AUTO 22010G17KT 10SM OVC009 05/03 A2974 RMK AO2 SLP070 60001 T00500028 10050 20011 56045
 
KDOV - Dover Air Force Base, Delaware
Distance from station: E 66mi, 107km
Updated: Sun, 19-Jan-2020 12:56am EST
Overcast
Overcast
 Wind from SSW
Wind: SSW 18 mph , 30 km/h, Gust: 30 mph , 48 km/h
Temperature: 43°F , 6°C
Wind Chill: 35°F , 2°C
Dew Point: 41°F , 5°C
Humidity: 93%
Barometer: 29.74 inHg , 1007.1 hPa
Clouds: Overcast
Visibility: 10 miles , 16 km
Cloud details: Overcast 1200 ft
2020/01/19 05:56 KDOV 190556Z AUTO 21016G26KT 10SM OVC012 06/05 A2974 RMK AO2 PK WND 20029/27 SLP074 60002 T00620048 10063 20015 57046 $
KMDT - Harrisburg Intl Airport, Middletown, Pennsylvania
Distance from station: N 67mi, 107km
Updated: Sun, 19-Jan-2020 12:56am EST
Light rain, Overcast
Light rain, Overcast
 Wind from varies
Wind: varies 5 mph , 7 km/h
Temperature: 36°F , 2°C
Wind Chill: 32°F , 0°C
Dew Point: 34°F , 1°C
Humidity: 93%
Barometer: 29.72 inHg , 1006.4 hPa
Summary: Light Rain
Clouds: Overcast
Visibility: 7 miles , 11 km
Cloud details: Overcast 600 ft
2020/01/19 05:56 KMDT 190556Z VRB04KT 7SM -RA OVC006 02/01 A2972 RMK AO2 RAB18 SLP066 P0002 60002 I1000 I6005 T00220006 10022 20006 56022 $
KMQS - Chester Co Carlson Airport, Coatesville, Pennsylvania
Distance from station: NE 68mi, 109km
Updated: Sun, 19-Jan-2020 1:35am EST
Light rain, Overcast
Light rain, Overcast
 Wind from varies
Wind: varies 7 mph , 11 km/h
Temperature: 34°F , 1°C
Wind Chill: 28°F , -2°C
Dew Point: 34°F , 1°C
Humidity: 100%
Barometer: 29.72 inHg , 1006.4 hPa
Summary: Light Rain
Clouds: Overcast
Visibility: 1 mile , 2 km
Cloud details: Overcast 100 ft
2020/01/19 06:35 KMQS 190635Z AUTO VRB06KT 1SM -RA OVC001 01/01 A2972 RMK AO2
 
KCXY - Capital City Airport, Harrisburg, Pennsylvania
Distance from station: N 68mi, 110km
Updated: Sun, 19-Jan-2020 12:56am EST
Overcast
Overcast
 Wind from WNW
Wind: WNW 5 mph , 7 km/h
Temperature: 36°F , 2°C
Wind Chill: 32°F , 0°C
Dew Point: 32°F , 0°C
Humidity: 87%
Barometer: 29.73 inHg , 1006.8 hPa
Clouds: Overcast
Visibility: 9 miles , 14 km
Cloud details: Overcast 600 ft
2020/01/19 05:56 KCXY 190556Z AUTO 29004KT 9SM OVC006 02/00 A2973 RMK AO2 RAB12E55 SLP071 P0002 60002 I6001 T00220000 10022 20011 56018
KNHK - Patuxent River NAS, Maryland
Distance from station: SE 69mi, 111km
Updated: Sun, 19-Jan-2020 12:52am EST
Partly Cloudy
Partly Cloudy
 Wind from SW
Wind: SW 16 mph , 26 km/h, Gust: 23 mph , 37 km/h
Temperature: 43°F , 6°C
Wind Chill: 35°F , 2°C
Dew Point: 43°F , 6°C
Humidity: 100%
Barometer: 29.81 inHg , 1009.5 hPa
Clouds: Partly Cloudy
Visibility: 10 miles , 16 km
Cloud details: Partly Cloudy 1200 ft
2020/01/19 05:52 KNHK 190552Z AUTO 22014G20KT 10SM SCT012 06/06 A2981 RMK AO2 SLP095 60001 T00610056 10061 20022 58040 $
KMRB - Eastern WV Reg Airport/Shepherd Field, Martinsburg, West Virginia
Distance from station: W 70mi, 112km
Updated: Sun, 19-Jan-2020 1:23am EST
Light rain, Mist, Overcast
Light rain, Mist, Overcast
 Wind from calm
Wind: Calm
Temperature: 34°F , 1°C
Dew Point: 32°F , 0°C
Humidity: 93%
Barometer: 29.70 inHg , 1005.8 hPa
Summary: Light rain, Mist
Clouds: Overcast
Visibility: 2 1/2 miles , 4 km
Cloud details: Overcast 4100 ft
2020/01/19 06:23 KMRB 190623Z AUTO 00000KT 2 1/2SM -RA BR OVC041 01/00 A2970 RMK AO2 P0000 T00060000
 
KHWY - Warrenton-Fauquier Airport, Warrenton, Virginia
Distance from station: SW 71mi, 114km
Updated: Sun, 19-Jan-2020 1:35am EST
Mostly Cloudy
Mostly Cloudy
 Wind from calm
Wind: Calm
Temperature: 43°F , 6°C
Dew Point: 39°F , 4°C
Humidity: 87%
Barometer: 29.74 inHg , 1007.1 hPa
Clouds: Mostly Cloudy
Visibility: 10 miles , 16 km
Cloud details: Mostly Cloudy 1000 ft
2020/01/19 06:35 KHWY 190635Z AUTO 00000KT 10SM BKN010 06/04 A2974 RMK AO2 T00570035
KRMN - Stafford Regional Airport, Virginia
Distance from station: SW 71mi, 114km
Updated: Sun, 19-Jan-2020 1:35am EST
Mostly Cloudy
Mostly Cloudy
 Wind from SSW
Wind: SSW 9 mph , 15 km/h
Temperature: 43°F , 6°C
Wind Chill: 38°F , 3°C
Dew Point: 43°F , 6°C
Humidity: 100%
Barometer: 29.80 inHg , 1009.1 hPa
Clouds: Mostly Cloudy
Visibility: 10 miles , 16 km
Cloud details: Mostly Cloudy 1100 ft
2020/01/19 06:35 KRMN 190635Z AUTO 21008KT 180V240 10SM BKN011 06/06 A2980 RMK AO2 T00600060
KNUI - Webster Naval, St Inigoes, Maryland
Distance from station: S 76mi, 123km
Updated: Sun, 19-Jan-2020 1:07am EST
Partly Cloudy
Partly Cloudy
 Wind from SSW
Wind: SSW 18 mph , 30 km/h, Gust: 30 mph , 48 km/h
Temperature: 46°F , 8°C
Wind Chill: 39°F , 4°C
Barometer: 29.80 inHg , 1009.1 hPa
Clouds: Partly Cloudy
Visibility: 10 miles , 16 km
Cloud details: Partly Cloudy 1100 ft
2020/01/19 06:07 KNUI 190607Z AUTO 21016G26KT 10SM SCT011 08/ A2980 RMK AO2 PK WND 20026/0601 T0083 $
 
KEZF - Fredericksburg/Shan, Virginia
Distance from station: SSW 78mi, 126km
Updated: Sun, 19-Jan-2020 1:35am EST
Clear
Clear
 Wind from SSW
Wind: SSW 12 mph , 19 km/h, Gust: 20 mph , 31 km/h
Temperature: 43°F , 6°C
Wind Chill: 37°F , 3°C
Dew Point: 41°F , 5°C
Humidity: 93%
Barometer: 29.77 inHg , 1008.1 hPa
Clouds: Clear
Visibility: 10 miles , 16 km
2020/01/19 06:35 KEZF 190635Z AUTO 21010G17KT 10SM CLR 06/05 A2977 RMK AO2 T00590054
KOKV - Winchester Regional Airport, Virginia
Distance from station: W 78mi, 126km
Updated: Sun, 19-Jan-2020 1:35am EST
Light drizzle, Overcast
Light drizzle, Overcast
 Wind from W
Wind: W 8 mph , 13 km/h
Temperature: 41°F , 5°C
Wind Chill: 36°F , 2°C
Dew Point: 37°F , 3°C
Humidity: 87%
Barometer: 29.69 inHg , 1005.4 hPa
Summary: Light Drizzle
Clouds: Overcast
Visibility: 10 miles , 16 km
Cloud details: Mostly Cloudy 3600 ft
Overcast 4400 ft
2020/01/19 06:35 KOKV 190635Z AUTO 26007KT 10SM -DZ BKN036 OVC044 05/03 A2969 RMK AO2
KCJR - Culpeper Regional Airport, Virginia
Distance from station: SW 79mi, 128km
Updated: Sun, 19-Jan-2020 1:35am EST
Mostly Cloudy
Mostly Cloudy
 Wind from S
Wind: S 6 mph , 9 km/h
Temperature: 41°F , 5°C
Wind Chill: 37°F , 3°C
Dew Point: 39°F , 4°C
Humidity: 93%
Barometer: 29.75 inHg , 1007.5 hPa
Clouds: Mostly Cloudy
Visibility: 10 miles , 16 km
Cloud details: Mostly Cloudy 1000 ft
2020/01/19 06:35 KCJR 190635Z AUTO 19005KT 10SM BKN010 05/04 A2975 RMK AO2 T00530042
canadians